Landels-Hill Big Creek Reserve Entrance, California Weather observations

Data are for 10 minute period ending at time listed.
 Day   Time   Solar   Ave.   Ave.  Ave.  Vector  Max.   Baro.   Total    
  of    of     Rad.   Air    Rel.  Wind   Wind   Wind  Press.  Precip.   
Year   Day            Temp.  Hum.  Speed  Dir.   Gust                    
2014   (PST)  Kw/m2    F      %     mph   deg.    mph    mb.     in.     
-------------------------------------------------------------------------
 258   13:40   0.74   68.7    70    2.6   229     5.3   1008.9    0.00 
 258   13:50   0.73   69.5    69    2.5   219     5.6   1008.9    0.00 
 258   14:00   0.71   68.9    71    3.0   214     5.5   1008.9    0.00 
 258   14:10   0.69   68.6    70    2.0   203     5.9   1009.0    0.00 
 258   14:20   0.67   69.7    66    2.0   176     5.6   1009.1    0.00 
 258   14:30   0.65   71.2    62    1.8   224     5.5   1009.0    0.00 
 258   14:40   0.63   71.5    62    2.4   199     6.1   1008.9    0.00 
 258   14:50   0.60   71.6    62    2.2   204     5.7   1008.9    0.00 
 258   15:00   0.58   72.6    61    1.9   207     5.3   1008.8    0.00 
 258   15:10   0.56   72.5    60    2.1   203     5.8   1008.8    0.00 
 258   15:20   0.53   72.7    60    2.0   196     4.5   1008.8    0.00 
 258   15:30   0.50   72.7    59    2.0   206     5.6   1008.6    0.00 
 258   15:40   0.48   72.7    59    1.8   204     4.2   1008.5    0.00 
 258   15:50   0.45   72.7    58    1.8   226     4.7   1008.5    0.00 
 258   16:00   0.42   71.4    60    2.6   211     7.4   1008.5    0.00 
 258   16:10   0.39   70.5    61    3.1   210     8.6   1008.5    0.00 
 258   16:20   0.35   71.5    58    1.8   197     5.2   1008.6    0.00 
 258   16:30   0.32   71.8    58    2.1   232     5.0   1008.6    0.00 
 258   16:40   0.29   71.0    58    2.3   196     6.3   1008.7    0.00 
 258   16:50   0.26   70.6    58    3.0   169     6.9   1008.8    0.00 
 258   17:00   0.23   71.2    56    2.9   226     6.6   1008.8    0.00 
 258   17:10   0.19   71.1    55    2.1   215     7.2   1008.8    0.00 
 258   17:20   0.09   70.8    55    1.9   201     5.7   1008.7    0.00 
 258   17:30   0.03   68.9    58    2.0   193     5.3   1008.6    0.00 
 258   17:40   0.03   68.2    60    1.4   189     3.5   1008.4    0.00 
 258   17:50   0.02   67.9    60    0.9   207     2.9   1008.1    0.00 
 258   18:00   0.01   67.5    62    0.7   172     3.3   1008.0    0.00 
 258   18:10   0.01   66.3    66    0.6   353     2.2   1007.9    0.00 
 258   18:20   0.01   65.0    68    1.1    13     2.5   1007.8    0.00 
 258   18:30   0.00   64.6    68    1.0    16     2.6   1007.8    0.00 
 258   18:40   0.00   64.1    69    1.1   357     2.0   1007.7    0.00 
 258   18:50   0.00   63.4    71    0.6     7     1.8   1007.8    0.00 
 258   19:00   0.00   62.6    73    1.0   356     2.3   1007.9    0.00 
 258   19:10   0.00   62.1    74    1.2    20     2.6   1008.0    0.00 
 258   19:20   0.00   61.8    75    0.6    18     2.2   1008.1    0.00 
 258   19:30   0.00   61.6    75    1.0    14     2.7   1008.2    0.00 
 258   19:40   0.00   61.2    75    1.0    12     3.0   1008.2    0.00 
 258   19:50   0.00   60.9    76    0.4     4     2.5   1008.2    0.00 
 258   20:00   0.00   60.5    77    0.5     5     2.5   1008.4    0.00 
 258   20:10   0.00   60.0    78    1.0   358     2.7   1008.5    0.00 
 258   20:20   0.00   59.8    79    1.0    33     2.6   1008.6    0.00 
 258   20:30   0.00   60.0    78    1.8    12     2.9   1008.6    0.00 
 258   20:40   0.00   59.6    78    1.0     2     2.7   1008.8    0.00 
 258   20:50   0.00   59.3    79    2.4    17     4.5   1008.9    0.00 
 258   21:00   0.00   59.2    78    1.7    29     4.2   1008.9    0.00 
 258   21:10   0.00   59.1    78    1.5    25     3.9   1009.0    0.00 
 258   21:20   0.00   58.9    78    1.9    13     4.0   1009.1    0.00 
 258   21:30   0.00   58.6    79    1.6    43     3.9   1009.2    0.00 
 258   21:40   0.00   58.7    77    1.7    52     5.3   1009.1    0.00 
 258   21:50   0.00   59.2    75    1.7    38     3.7   1009.2    0.00 
 258   22:00   0.00   58.8    75    1.4    20     3.7   1009.3    0.00 
 258   22:10   0.00   58.0    77    2.0    17     4.1   1009.3    0.00 
 258   22:20   0.00   57.6    78    1.7    48     3.5   1009.3    0.00 
 258   22:30   0.00   57.8    76    1.8    40     4.7   1009.3    0.00 
 258   22:40   0.00   58.0    74    1.6    61     4.5   1009.3    0.00 
 258   22:50   0.00   58.2    74    2.0    26     4.7   1009.2    0.00 
 258   23:00   0.00   57.5    75    1.8    21     4.0   1009.2    0.00 
 258   23:10   0.00   57.2    75    1.8    14     3.7   1009.3    0.00 
 258   23:20   0.00   56.9    76    1.9    24     4.2   1009.3    0.00 
 258   23:30   0.00   57.0    75    1.6    25     4.4   1009.4    0.00 
 258   23:40   0.00   57.3    74    3.0    48     6.9   1009.3    0.00 
 258   23:50   0.00   58.1    70    2.8    61     6.3   1009.2    0.00 
 259    0:00   0.00   58.2    69    1.7    29     4.4   1009.2    0.00 
 259    0:10   0.00   57.7    70    2.0    49     4.9   1009.2    0.00 
 259    0:20   0.00   58.2    68    1.9    32     8.3   1009.2    0.00 
 259    0:30   0.00   58.2    68    1.8    29     5.8   1009.1    0.00 
 259    0:40   0.00   58.3    67    2.3    48     4.9   1009.1    0.00 
 259    0:50   0.00   58.2    67    2.5    36     6.1   1009.0    0.00 
 259    1:00   0.00   58.2    66    1.7    32     5.3   1008.9    0.00 
 259    1:10   0.00   57.9    66    1.9    29     4.2   1008.8    0.00 
 259    1:20   0.00   57.7    67    2.1    29     6.5   1008.7    0.00 
 259    1:30   0.00   57.7    66    1.9    31     5.6   1008.7    0.00 
 259    1:40   0.00   57.0    68    2.1    35     5.3   1008.6    0.00 
 259    1:50   0.00   57.4    66    2.2    25     6.4   1008.4    0.00 
 259    2:00   0.00   57.5    65    1.8    32     4.3   1008.3    0.00 
 259    2:10   0.00   56.9    66    1.9    35     4.5   1008.2    0.00 
 259    2:20   0.00   56.7    66    2.6    34     6.1   1008.1    0.00 
 259    2:30   0.00   57.4    63    2.5    27     6.7   1008.0    0.00 
 259    2:40   0.00   57.7    62    2.0    37     4.6   1008.1    0.00 
 259    2:50   0.00   57.6    62    1.3    50     3.2   1008.1    0.00 
 259    3:00   0.00   56.8    64    1.4    13     3.3   1008.2    0.00 
 259    3:10   0.00   56.0    67    1.6    32     4.8   1008.1    0.00 
 259    3:20   0.00   56.1    66    1.0    30     3.7   1008.0    0.00 
 259    3:30   0.00   55.4    68    1.5    11     3.4   1007.9    0.00 
 259    3:40   0.00   55.1    69    2.2    18     4.2   1008.0    0.00 
 259    3:50   0.00   54.8    70    1.8     6     3.9   1007.9    0.00 
 259    4:00   0.00   54.5    72    2.4   356     3.9   1007.9    0.00 
 259    4:10   0.00   54.4    72    2.6    12     4.7   1008.0    0.00 
 259    4:20   0.00   55.0    70    2.2    34     5.8   1007.9    0.00 
 259    4:30   0.00   56.2    65    1.9    14     6.3   1007.9    0.00 
 259    4:40   0.00   55.4    67    1.9    16     3.5   1008.0    0.00 
 259    4:50   0.00   54.9    68    1.5    30     3.9   1008.1    0.00 
 259    5:00   0.00   54.8    68    1.3    10     3.4   1008.3    0.00 
 259    5:10   0.00   54.0    71    2.5    10     4.2   1008.5    0.00 
 259    5:20   0.00   53.4    73    2.1    10     3.9   1008.7    0.00 
 259    5:30   0.00   53.6    72    4.1    11     8.7   1008.5    0.00 
 259    5:40   0.00   55.1    66    4.1    18     9.8   1008.4    0.00 
 259    5:50   0.00   55.5    65    3.4    42     8.2   1008.3    0.00 
 259    6:00   0.01   56.1    63    1.3    36     4.5   1008.5    0.00 
 259    6:10   0.01   55.3    65    2.1     5     4.5   1008.6    0.00 
 259    6:20   0.01   54.4    68    2.6     7     4.3   1008.7    0.00 
 259    6:30   0.01   54.1    69    2.2     7     4.6   1008.6    0.00 
 259    6:40   0.01   54.1    70    2.2    27     4.2   1008.5    0.00 
 259    6:50   0.01   54.6    68    1.7    39     4.2   1008.5    0.00 
 259    7:00   0.01   54.9    67    1.3     5     3.4   1008.5    0.00 
 259    7:10   0.01   54.4    68    2.2    14     4.1   1008.6    0.00 
 259    7:20   0.01   54.4    69    2.2     8     4.9   1008.6    0.00 
 259    7:30   0.01   54.1    71    2.6   358     4.3   1008.5    0.00 
 259    7:40   0.01   54.1    72    2.3     8     4.2   1008.4    0.00 
 259    7:50   0.01   54.4    71    1.9   352     3.0   1008.4    0.00 
 259    8:00   0.02   54.5    72    2.7   350     4.3   1008.5    0.00 
 259    8:10   0.03   54.9    73    1.7   348     4.5   1008.5    0.00 
 259    8:20   0.03   54.7    74    0.4   351     1.6   1008.7    0.00 
 259    8:30   0.03   55.9    76    0.4   185     2.2   1008.8    0.00 
 259    8:40   0.03   57.6    77    0.4   184     1.9   1008.7    0.00 
 259    8:50   0.03   58.5    76    0.5   156     3.0   1008.7    0.00 
 259    9:00   0.03   59.3    77    0.8   183     2.3   1008.9    0.00 
 259    9:10   0.03   59.5    79    1.7   156     3.2   1008.9    0.00 
 259    9:20   0.03   59.6    78    1.8   151     3.1   1008.8    0.00 
 259    9:30   0.47   60.5    77    1.2   160     2.9   1008.8    0.00 
 259    9:40   0.61   62.6    72    2.1   206     4.4   1008.7    0.00 
 259    9:50   0.64   64.5    68    1.6   180     3.4   1008.7    0.00 
 259   10:00   0.67   66.1    64    1.9   198     3.7   1008.9    0.00 
 259   10:10   0.69   65.7    64    1.9   178     3.9   1009.0    0.00 
 259   10:20   0.71   65.9    63    2.1   199     4.5   1009.0    0.00 
 259   10:30   0.73   65.1    64    2.5   206     3.9   1009.0    0.00 
 259   10:40   0.75   66.2    62    2.1   199     4.2   1009.1    0.00 
 259   10:50   0.76   65.5    64    2.5   201     3.9   1008.8    0.00 
 259   11:00   0.78   65.7    64    2.6   194     4.7   1008.6    0.00 
 259   11:10   0.79   64.5    66    3.0   163     6.1   1008.6    0.00 
 259   11:20   0.80   65.2    66    3.2   152     5.3   1008.5    0.00 
 259   11:30   0.81   65.8    65    2.2   169     4.3   1008.3    0.00 
 259   11:40   0.82   66.9    63    2.2   206     4.5   1007.9    0.00 
 259   11:50   0.82   66.7    63    2.3   190     4.2   1007.8    0.00 
 259   12:00   0.83   67.7    62    2.2   196     4.7   1007.8    0.00 
 259   12:10   0.84   67.4    63    2.3   184     4.4   1007.6    0.00 
 259   12:20   0.84   67.6    63    2.1   191     5.1   1007.4    0.00 
 259   12:30   0.83   68.5    61    2.2   192     4.8   1007.1    0.00 
 259   12:40   0.82   69.2    62    2.0   213     4.7   1006.9    0.00 
 259   12:50   0.82   69.3    59    1.9   222     3.9   1006.6    0.00 
 259   13:00   0.82   69.2    60    2.1   190     6.5   1006.6    0.00 
 259   13:10   0.80   68.7    65    2.8   173     7.7   1007.1    0.00 
 259   13:20   0.79   67.0    72    2.2   200     5.8   1007.6    0.00 
 259   13:30   0.78   67.0    72    1.9   212     5.1   1008.0    0.00 

Return to Big Creek Reserve Entrance graphs page.


Western Regional Climate Center,wrcc@dri.edu